Аэропорт: Кольцово. Екатеринбург

ICAO: USSS

METAR:
2019/01/21 23:00
USSS 212300Z 20005MPS CAVOK M08/M12 Q1010 R26R/820350 NOSIG RMK QFE737/0983
METAR:
2019/01/21 21:24
TAF USSS 211956Z 2121/2221 18004G11MPS 6000 -SHSN BKN011 SCT020CB 
      BECMG 2122/2123 3100 -SHSN 
      TEMPO 2123/2209 0900 +SHSN VV004 
      BECMG 2209/2211 6000 -SHSN